Terminal Aerodrome Forecast
Issued by NWS

Home | Current Version | Previous Version | Text Only | Print | Product List | Glossary On
Versions: 1 2 3 4 5 6 7 8 9 10 11 12 13
944
FTUS43 KJKL 231737
TAFSME
TAF
KSME 231737Z 2318/2418 14010G21KT P6SM -SHRA OVC050
     FM232100 13008G18KT P6SM VCSH OVC050
     FM240800 10005KT 6SM -SHRA BR BKN015 OVC030
     FM241100 14006KT 5SM -SHRA BR BKN007 OVC020=

USA.gov is the U.S. government's official web portal to all federal, state and local government web resources and services.